sensor_id;sensor_type;location;lat;lon;timestamp;pressure;altitude;pressure_sealevel;temperature
75428;BMP280;64008;55.612;37.698;2023-02-23T00:01:41;99490.09;;;10.84
75428;BMP280;64008;55.612;37.698;2023-02-23T00:04:07;99492.28;;;10.87
75428;BMP280;64008;55.612;37.698;2023-02-23T00:06:34;99495.59;;;10.95
75428;BMP280;64008;55.612;37.698;2023-02-23T00:09:01;99498.59;;;10.86
75428;BMP280;64008;55.612;37.698;2023-02-23T00:11:31;99491.47;;;10.87
75428;BMP280;64008;55.612;37.698;2023-02-23T00:13:57;99491.00;;;11.02
75428;BMP280;64008;55.612;37.698;2023-02-23T00:16:25;99498.25;;;10.83
75428;BMP280;64008;55.612;37.698;2023-02-23T00:18:57;99495.06;;;10.81
75428;BMP280;64008;55.612;37.698;2023-02-23T00:21:28;99499.06;;;10.83
75428;BMP280;64008;55.612;37.698;2023-02-23T00:23:59;99508.72;;;10.78
75428;BMP280;64008;55.612;37.698;2023-02-23T00:26:28;99504.38;;;10.72
75428;BMP280;64008;55.612;37.698;2023-02-23T00:29:00;99505.19;;;10.72
75428;BMP280;64008;55.612;37.698;2023-02-23T00:31:27;99506.59;;;10.63
75428;BMP280;64008;55.612;37.698;2023-02-23T00:33:54;99511.03;;;10.62
75428;BMP280;64008;55.612;37.698;2023-02-23T00:36:22;99506.34;;;10.53
75428;BMP280;64008;55.612;37.698;2023-02-23T00:38:51;99524.38;;;10.56
75428;BMP280;64008;55.612;37.698;2023-02-23T00:41:17;99526.19;;;10.43
75428;BMP280;64008;55.612;37.698;2023-02-23T00:44:03;99527.59;;;10.46
75428;BMP280;64008;55.612;37.698;2023-02-23T00:46:29;99528.13;;;10.48
75428;BMP280;64008;55.612;37.698;2023-02-23T00:48:56;99508.75;;;10.54
75428;BMP280;64008;55.612;37.698;2023-02-23T00:51:24;99529.75;;;10.49
75428;BMP280;64008;55.612;37.698;2023-02-23T00:53:54;99526.56;;;10.47
75428;BMP280;64008;55.612;37.698;2023-02-23T00:56:19;99528.25;;;10.41
75428;BMP280;64008;55.612;37.698;2023-02-23T00:58:46;99532.75;;;10.41
75428;BMP280;64008;55.612;37.698;2023-02-23T01:01:12;99534.56;;;10.40
75428;BMP280;64008;55.612;37.698;2023-02-23T01:03:40;99530.88;;;10.41
75428;BMP280;64008;55.612;37.698;2023-02-23T01:06:08;99529.78;;;10.37
75428;BMP280;64008;55.612;37.698;2023-02-23T01:08:39;99534.72;;;10.45
75428;BMP280;64008;55.612;37.698;2023-02-23T01:11:13;99539.72;;;10.35
75428;BMP280;64008;55.612;37.698;2023-02-23T01:13:41;99539.84;;;10.40
75428;BMP280;64008;55.612;37.698;2023-02-23T01:16:13;99546.28;;;10.44
75428;BMP280;64008;55.612;37.698;2023-02-23T01:18:40;99552.13;;;10.35
75428;BMP280;64008;55.612;37.698;2023-02-23T01:21:14;99548.78;;;10.39
75428;BMP280;64008;55.612;37.698;2023-02-23T01:23:40;99556.47;;;10.29
75428;BMP280;64008;55.612;37.698;2023-02-23T01:26:14;99560.59;;;10.25
75428;BMP280;64008;55.612;37.698;2023-02-23T01:28:40;99561.53;;;10.19
75428;BMP280;64008;55.612;37.698;2023-02-23T01:31:08;99565.78;;;10.31
75428;BMP280;64008;55.612;37.698;2023-02-23T01:33:34;99557.97;;;10.25
75428;BMP280;64008;55.612;37.698;2023-02-23T01:35:59;99553.59;;;10.19
75428;BMP280;64008;55.612;37.698;2023-02-23T01:38:25;99571.16;;;10.25
75428;BMP280;64008;55.612;37.698;2023-02-23T01:40:50;99563.38;;;10.30
75428;BMP280;64008;55.612;37.698;2023-02-23T01:43:20;99571.06;;;10.31
75428;BMP280;64008;55.612;37.698;2023-02-23T01:45:56;99556.13;;;10.25
75428;BMP280;64008;55.612;37.698;2023-02-23T01:48:29;99558.75;;;10.25
75428;BMP280;64008;55.612;37.698;2023-02-23T01:50:59;99561.63;;;10.24
75428;BMP280;64008;55.612;37.698;2023-02-23T01:53:29;99553.63;;;10.30
75428;BMP280;64008;55.612;37.698;2023-02-23T01:55:58;99558.09;;;10.30
75428;BMP280;64008;55.612;37.698;2023-02-23T01:58:26;99554.66;;;10.29
75428;BMP280;64008;55.612;37.698;2023-02-23T02:00:55;99556.56;;;10.22
75428;BMP280;64008;55.612;37.698;2023-02-23T02:03:49;99561.91;;;10.34
75428;BMP280;64008;55.612;37.698;2023-02-23T02:06:18;99560.59;;;10.25
75428;BMP280;64008;55.612;37.698;2023-02-23T02:08:51;99559.00;;;10.24
75428;BMP280;64008;55.612;37.698;2023-02-23T02:11:23;99565.56;;;10.21
75428;BMP280;64008;55.612;37.698;2023-02-23T02:13:59;99569.88;;;10.16
75428;BMP280;64008;55.612;37.698;2023-02-23T02:28:39;99587.66;;;10.08
75428;BMP280;64008;55.612;37.698;2023-02-23T02:34:19;99581.88;;;10.00
75428;BMP280;64008;55.612;37.698;2023-02-23T02:45:06;99596.81;;;9.94
75428;BMP280;64008;55.612;37.698;2023-02-23T02:47:40;99597.72;;;10.00
75428;BMP280;64008;55.612;37.698;2023-02-23T02:50:22;99606.34;;;10.07
75428;BMP280;64008;55.612;37.698;2023-02-23T02:53:17;99592.94;;;10.08
75428;BMP280;64008;55.612;37.698;2023-02-23T02:55:46;99608.66;;;10.03
75428;BMP280;64008;55.612;37.698;2023-02-23T02:58:14;99603.94;;;10.05
75428;BMP280;64008;55.612;37.698;2023-02-23T03:00:45;99611.63;;;10.07
75428;BMP280;64008;55.612;37.698;2023-02-23T03:03:34;99608.78;;;10.08
75428;BMP280;64008;55.612;37.698;2023-02-23T03:06:21;99610.38;;;10.09
75428;BMP280;64008;55.612;37.698;2023-02-23T03:09:22;99612.16;;;9.97
75428;BMP280;64008;55.612;37.698;2023-02-23T03:12:31;99610.22;;;10.04
75428;BMP280;64008;55.612;37.698;2023-02-23T03:15:53;99617.94;;;10.06
75428;BMP280;64008;55.612;37.698;2023-02-23T03:28:18;99619.50;;;9.95
75428;BMP280;64008;55.612;37.698;2023-02-23T03:31:23;99619.34;;;10.08
75428;BMP280;64008;55.612;37.698;2023-02-23T03:34:29;99617.81;;;10.01
75428;BMP280;64008;55.612;37.698;2023-02-23T03:37:20;99622.06;;;10.02
75428;BMP280;64008;55.612;37.698;2023-02-23T03:40:28;99626.81;;;10.23
75428;BMP280;64008;55.612;37.698;2023-02-23T03:43:16;99623.72;;;10.15
75428;BMP280;64008;55.612;37.698;2023-02-23T03:46:02;99617.91;;;9.94
75428;BMP280;64008;55.612;37.698;2023-02-23T03:48:48;99621.41;;;9.88
75428;BMP280;64008;55.612;37.698;2023-02-23T03:51:36;99629.22;;;9.83
75428;BMP280;64008;55.612;37.698;2023-02-23T03:54:33;99625.81;;;9.94
75428;BMP280;64008;55.612;37.698;2023-02-23T03:57:19;99628.78;;;9.86
75428;BMP280;64008;55.612;37.698;2023-02-23T04:00:09;99633.97;;;9.93
75428;BMP280;64008;55.612;37.698;2023-02-23T04:02:55;99634.66;;;10.00
75428;BMP280;64008;55.612;37.698;2023-02-23T04:05:41;99628.00;;;9.97
75428;BMP280;64008;55.612;37.698;2023-02-23T04:08:31;99639.50;;;10.03
75428;BMP280;64008;55.612;37.698;2023-02-23T04:14:36;99639.66;;;9.89
75428;BMP280;64008;55.612;37.698;2023-02-23T04:17:03;99647.47;;;9.84
75428;BMP280;64008;55.612;37.698;2023-02-23T04:19:29;99640.94;;;9.87
75428;BMP280;64008;55.612;37.698;2023-02-23T04:21:54;99634.28;;;9.96
75428;BMP280;64008;55.612;37.698;2023-02-23T04:24:20;99640.16;;;9.98
75428;BMP280;64008;55.612;37.698;2023-02-23T04:26:46;99648.25;;;10.03
75428;BMP280;64008;55.612;37.698;2023-02-23T04:29:11;99653.03;;;10.06
75428;BMP280;64008;55.612;37.698;2023-02-23T04:31:37;99648.78;;;10.05
75428;BMP280;64008;55.612;37.698;2023-02-23T04:34:03;99653.84;;;10.07
75428;BMP280;64008;55.612;37.698;2023-02-23T04:36:29;99650.38;;;10.06
75428;BMP280;64008;55.612;37.698;2023-02-23T04:38:55;99639.63;;;10.08
75428;BMP280;64008;55.612;37.698;2023-02-23T04:41:21;99655.00;;;10.11
75428;BMP280;64008;55.612;37.698;2023-02-23T04:43:46;99656.81;;;9.99
75428;BMP280;64008;55.612;37.698;2023-02-23T04:46:12;99658.28;;;9.95
75428;BMP280;64008;55.612;37.698;2023-02-23T04:48:37;99650.13;;;9.96
75428;BMP280;64008;55.612;37.698;2023-02-23T04:51:03;99649.00;;;9.92
75428;BMP280;64008;55.612;37.698;2023-02-23T04:53:28;99658.50;;;9.93
75428;BMP280;64008;55.612;37.698;2023-02-23T04:55:54;99664.13;;;9.97
75428;BMP280;64008;55.612;37.698;2023-02-23T04:58:19;99667.16;;;10.00
75428;BMP280;64008;55.612;37.698;2023-02-23T05:00:45;99665.25;;;9.89
75428;BMP280;64008;55.612;37.698;2023-02-23T05:03:10;99663.41;;;9.89
75428;BMP280;64008;55.612;37.698;2023-02-23T05:05:36;99681.22;;;9.94
75428;BMP280;64008;55.612;37.698;2023-02-23T05:08:02;99681.22;;;9.94
75428;BMP280;64008;55.612;37.698;2023-02-23T05:10:28;99678.50;;;10.01
75428;BMP280;64008;55.612;37.698;2023-02-23T05:12:54;99686.63;;;9.99
75428;BMP280;64008;55.612;37.698;2023-02-23T05:15:19;99675.34;;;10.10
75428;BMP280;64008;55.612;37.698;2023-02-23T05:17:45;99680.25;;;10.07
75428;BMP280;64008;55.612;37.698;2023-02-23T05:20:12;99693.44;;;10.07
75428;BMP280;64008;55.612;37.698;2023-02-23T05:22:38;99689.59;;;9.91
75428;BMP280;64008;55.612;37.698;2023-02-23T05:25:05;99697.97;;;10.00
75428;BMP280;64008;55.612;37.698;2023-02-23T05:27:32;99690.00;;;9.88
75428;BMP280;64008;55.612;37.698;2023-02-23T05:29:58;99684.72;;;9.88
75428;BMP280;64008;55.612;37.698;2023-02-23T05:32:24;99687.94;;;9.90
75428;BMP280;64008;55.612;37.698;2023-02-23T05:34:49;99702.97;;;9.89
75428;BMP280;64008;55.612;37.698;2023-02-23T05:37:15;99688.94;;;9.96
75428;BMP280;64008;55.612;37.698;2023-02-23T05:39:40;99692.63;;;10.06
75428;BMP280;64008;55.612;37.698;2023-02-23T05:42:06;99690.38;;;10.10
75428;BMP280;64008;55.612;37.698;2023-02-23T05:44:31;99689.53;;;10.09
75428;BMP280;64008;55.612;37.698;2023-02-23T05:46:57;99699.28;;;10.39
75428;BMP280;64008;55.612;37.698;2023-02-23T05:49:22;99690.59;;;10.08
75428;BMP280;64008;55.612;37.698;2023-02-23T05:51:48;99707.00;;;10.10
75428;BMP280;64008;55.612;37.698;2023-02-23T05:54:14;99702.81;;;10.21
75428;BMP280;64008;55.612;37.698;2023-02-23T05:56:41;99700.81;;;10.17
75428;BMP280;64008;55.612;37.698;2023-02-23T05:59:07;99698.94;;;10.05
75428;BMP280;64008;55.612;37.698;2023-02-23T06:01:32;99709.50;;;10.05
75428;BMP280;64008;55.612;37.698;2023-02-23T06:03:58;99706.31;;;10.03
75428;BMP280;64008;55.612;37.698;2023-02-23T06:06:24;99713.59;;;10.01
75428;BMP280;64008;55.612;37.698;2023-02-23T06:08:50;99709.38;;;10.00
75428;BMP280;64008;55.612;37.698;2023-02-23T06:11:16;99712.41;;;10.16
75428;BMP280;64008;55.612;37.698;2023-02-23T06:13:41;99712.72;;;10.07
75428;BMP280;64008;55.612;37.698;2023-02-23T06:16:07;99715.78;;;10.04
75428;BMP280;64008;55.612;37.698;2023-02-23T06:18:33;99721.06;;;10.04
75428;BMP280;64008;55.612;37.698;2023-02-23T06:20:59;99730.06;;;9.97
75428;BMP280;64008;55.612;37.698;2023-02-23T06:23:29;99725.47;;;10.10
75428;BMP280;64008;55.612;37.698;2023-02-23T06:25:55;99728.81;;;10.18
75428;BMP280;64008;55.612;37.698;2023-02-23T06:28:20;99721.59;;;10.13
75428;BMP280;64008;55.612;37.698;2023-02-23T06:30:46;99728.69;;;10.13
75428;BMP280;64008;55.612;37.698;2023-02-23T06:33:12;99725.44;;;10.29
75428;BMP280;64008;55.612;37.698;2023-02-23T06:35:38;99729.44;;;10.31
75428;BMP280;64008;55.612;37.698;2023-02-23T06:38:04;99724.53;;;10.35
75428;BMP280;64008;55.612;37.698;2023-02-23T06:40:31;99724.53;;;10.35
75428;BMP280;64008;55.612;37.698;2023-02-23T06:42:56;99721.59;;;10.43
75428;BMP280;64008;55.612;37.698;2023-02-23T06:45:22;99716.69;;;10.47
75428;BMP280;64008;55.612;37.698;2023-02-23T06:47:48;99726.94;;;10.55
75428;BMP280;64008;55.612;37.698;2023-02-23T06:50:14;99724.50;;;10.65
75428;BMP280;64008;55.612;37.698;2023-02-23T06:52:40;99738.16;;;10.81
75428;BMP280;64008;55.612;37.698;2023-02-23T06:55:06;99729.53;;;10.85
75428;BMP280;64008;55.612;37.698;2023-02-23T06:57:32;99737.78;;;10.89
75428;BMP280;64008;55.612;37.698;2023-02-23T06:59:58;99744.34;;;10.86
75428;BMP280;64008;55.612;37.698;2023-02-23T07:02:25;99739.66;;;11.00
75428;BMP280;64008;55.612;37.698;2023-02-23T07:04:51;99746.44;;;11.08
75428;BMP280;64008;55.612;37.698;2023-02-23T07:07:16;99744.03;;;11.18
75428;BMP280;64008;55.612;37.698;2023-02-23T07:09:42;99740.81;;;11.16
75428;BMP280;64008;55.612;37.698;2023-02-23T07:12:08;99754.03;;;11.04
75428;BMP280;64008;55.612;37.698;2023-02-23T07:14:34;99751.47;;;10.98
75428;BMP280;64008;55.612;37.698;2023-02-23T07:17:00;99757.31;;;11.00
75428;BMP280;64008;55.612;37.698;2023-02-23T07:19:26;99755.97;;;11.09
75428;BMP280;64008;55.612;37.698;2023-02-23T07:21:51;99758.06;;;11.30
75428;BMP280;64008;55.612;37.698;2023-02-23T07:24:18;99756.22;;;11.31
75428;BMP280;64008;55.612;37.698;2023-02-23T07:26:43;99762.22;;;11.26
75428;BMP280;64008;55.612;37.698;2023-02-23T07:29:11;99765.06;;;11.25
75428;BMP280;64008;55.612;37.698;2023-02-23T07:31:38;99765.75;;;11.20
75428;BMP280;64008;55.612;37.698;2023-02-23T07:34:03;99765.41;;;11.28
75428;BMP280;64008;55.612;37.698;2023-02-23T07:36:29;99778.88;;;11.39
75428;BMP280;64008;55.612;37.698;2023-02-23T07:38:54;99759.19;;;11.46
75428;BMP280;64008;55.612;37.698;2023-02-23T07:41:21;99768.75;;;11.59
75428;BMP280;64008;55.612;37.698;2023-02-23T07:43:47;99779.06;;;11.61
75428;BMP280;64008;55.612;37.698;2023-02-23T07:46:13;99778.41;;;11.54
75428;BMP280;64008;55.612;37.698;2023-02-23T07:48:40;99778.97;;;11.56
75428;BMP280;64008;55.612;37.698;2023-02-23T07:51:13;99774.63;;;11.61
75428;BMP280;64008;55.612;37.698;2023-02-23T07:53:40;99772.09;;;11.66
75428;BMP280;64008;55.612;37.698;2023-02-23T07:56:07;99784.00;;;11.69
75428;BMP280;64008;55.612;37.698;2023-02-23T07:58:35;99785.88;;;11.68
75428;BMP280;64008;55.612;37.698;2023-02-23T08:01:01;99784.75;;;11.64
75428;BMP280;64008;55.612;37.698;2023-02-23T08:03:27;99773.44;;;11.81
75428;BMP280;64008;55.612;37.698;2023-02-23T08:05:53;99779.94;;;11.90
75428;BMP280;64008;55.612;37.698;2023-02-23T08:08:18;99775.38;;;11.85
75428;BMP280;64008;55.612;37.698;2023-02-23T08:10:44;99779.06;;;11.84
75428;BMP280;64008;55.612;37.698;2023-02-23T08:13:12;99774.19;;;11.93
75428;BMP280;64008;55.612;37.698;2023-02-23T08:15:37;99769.94;;;12.04
75428;BMP280;64008;55.612;37.698;2023-02-23T08:18:03;99762.09;;;12.09
75428;BMP280;64008;55.612;37.698;2023-02-23T08:20:29;99773.28;;;12.11
75428;BMP280;64008;55.612;37.698;2023-02-23T08:22:55;99760.13;;;12.16
75428;BMP280;64008;55.612;37.698;2023-02-23T08:25:22;99760.28;;;12.26
75428;BMP280;64008;55.612;37.698;2023-02-23T08:27:49;99762.69;;;12.28
75428;BMP280;64008;55.612;37.698;2023-02-23T08:30:19;99763.19;;;12.25
75428;BMP280;64008;55.612;37.698;2023-02-23T08:32:45;99762.81;;;12.33
75428;BMP280;64008;55.612;37.698;2023-02-23T08:35:11;99763.88;;;12.32
75428;BMP280;64008;55.612;37.698;2023-02-23T08:37:37;99773.94;;;12.35
75428;BMP280;64008;55.612;37.698;2023-02-23T08:40:03;99764.03;;;12.42
75428;BMP280;64008;55.612;37.698;2023-02-23T08:42:29;99764.81;;;12.43
75428;BMP280;64008;55.612;37.698;2023-02-23T08:44:54;99767.00;;;12.46
75428;BMP280;64008;55.612;37.698;2023-02-23T08:47:20;99778.06;;;12.55
75428;BMP280;64008;55.612;37.698;2023-02-23T08:49:50;99776.09;;;12.50
75428;BMP280;64008;55.612;37.698;2023-02-23T08:52:16;99777.28;;;12.42
75428;BMP280;64008;55.612;37.698;2023-02-23T08:54:42;99771.50;;;12.45
75428;BMP280;64008;55.612;37.698;2023-02-23T08:57:07;99766.28;;;12.34
75428;BMP280;64008;55.612;37.698;2023-02-23T08:59:33;99780.16;;;12.41
75428;BMP280;64008;55.612;37.698;2023-02-23T09:01:58;99773.09;;;12.46
75428;BMP280;64008;55.612;37.698;2023-02-23T09:04:24;99770.19;;;12.60
75428;BMP280;64008;55.612;37.698;2023-02-23T09:06:49;99774.44;;;12.61
75428;BMP280;64008;55.612;37.698;2023-02-23T09:09:16;99785.13;;;12.66
75428;BMP280;64008;55.612;37.698;2023-02-23T09:11:42;99780.69;;;12.71
75428;BMP280;64008;55.612;37.698;2023-02-23T09:14:07;99775.72;;;12.75
75428;BMP280;64008;55.612;37.698;2023-02-23T09:16:34;99775.81;;;12.80
75428;BMP280;64008;55.612;37.698;2023-02-23T09:19:00;99772.75;;;13.05
75428;BMP280;64008;55.612;37.698;2023-02-23T09:21:25;99764.97;;;12.99
75428;BMP280;64008;55.612;37.698;2023-02-23T09:23:54;99770.34;;;13.04
75428;BMP280;64008;55.612;37.698;2023-02-23T09:26:22;99767.63;;;13.16
75428;BMP280;64008;55.612;37.698;2023-02-23T09:28:48;99771.03;;;13.33
75428;BMP280;64008;55.612;37.698;2023-02-23T09:31:17;99777.84;;;13.46
75428;BMP280;64008;55.612;37.698;2023-02-23T09:33:43;99767.22;;;13.63
75428;BMP280;64008;55.612;37.698;2023-02-23T09:36:11;99768.91;;;13.69
75428;BMP280;64008;55.612;37.698;2023-02-23T09:38:50;99768.06;;;13.90
75428;BMP280;64008;55.612;37.698;2023-02-23T09:44:00;99752.13;;;14.45
75428;BMP280;64008;55.612;37.698;2023-02-23T09:48:54;99749.09;;;15.01
75428;BMP280;64008;55.612;37.698;2023-02-23T09:51:21;99765.69;;;15.13
75428;BMP280;64008;55.612;37.698;2023-02-23T09:53:56;99758.88;;;15.32
75428;BMP280;64008;55.612;37.698;2023-02-23T09:56:35;99762.44;;;15.58
75428;BMP280;64008;55.612;37.698;2023-02-23T09:59:03;99763.34;;;15.85
75428;BMP280;64008;55.612;37.698;2023-02-23T10:07:37;99755.97;;;16.43
75428;BMP280;64008;55.612;37.698;2023-02-23T10:15:41;99734.28;;;17.01
75428;BMP280;64008;55.612;37.698;2023-02-23T10:18:23;99727.22;;;17.30
75428;BMP280;64008;55.612;37.698;2023-02-23T10:21:01;99731.91;;;17.54
75428;BMP280;64008;55.612;37.698;2023-02-23T10:23:37;99733.97;;;17.78
75428;BMP280;64008;55.612;37.698;2023-02-23T10:26:04;99747.75;;;17.90
75428;BMP280;64008;55.612;37.698;2023-02-23T10:28:35;99733.50;;;18.00
75428;BMP280;64008;55.612;37.698;2023-02-23T10:31:05;99740.88;;;18.18
75428;BMP280;64008;55.612;37.698;2023-02-23T10:33:34;99726.19;;;18.45
75428;BMP280;64008;55.612;37.698;2023-02-23T10:36:12;99732.41;;;18.69
75428;BMP280;64008;55.612;37.698;2023-02-23T10:38:39;99720.56;;;18.94
75428;BMP280;64008;55.612;37.698;2023-02-23T10:41:05;99727.25;;;19.21
75428;BMP280;64008;55.612;37.698;2023-02-23T10:43:31;99725.75;;;19.34
75428;BMP280;64008;55.612;37.698;2023-02-23T10:45:57;99740.50;;;19.50
75428;BMP280;64008;55.612;37.698;2023-02-23T10:48:26;99737.09;;;19.63
75428;BMP280;64008;55.612;37.698;2023-02-23T10:50:56;99734.88;;;19.71
75428;BMP280;64008;55.612;37.698;2023-02-23T10:53:34;99734.94;;;19.65
75428;BMP280;64008;55.612;37.698;2023-02-23T10:56:29;99744.94;;;19.79
75428;BMP280;64008;55.612;37.698;2023-02-23T10:58:58;99731.34;;;19.89
75428;BMP280;64008;55.612;37.698;2023-02-23T11:06:38;99737.44;;;20.27
75428;BMP280;64008;55.612;37.698;2023-02-23T11:12:25;99733.56;;;20.34
75428;BMP280;64008;55.612;37.698;2023-02-23T11:14:56;99746.84;;;20.25
75428;BMP280;64008;55.612;37.698;2023-02-23T11:17:33;99739.25;;;20.32
75428;BMP280;64008;55.612;37.698;2023-02-23T11:20:03;99743.81;;;20.32
75428;BMP280;64008;55.612;37.698;2023-02-23T11:22:36;99738.75;;;20.44
75428;BMP280;64008;55.612;37.698;2023-02-23T11:25:16;99733.91;;;20.60
75428;BMP280;64008;55.612;37.698;2023-02-23T11:27:46;99731.13;;;20.65
75428;BMP280;64008;55.612;37.698;2023-02-23T11:30:21;99734.53;;;20.70
75428;BMP280;64008;55.612;37.698;2023-02-23T11:32:55;99735.50;;;20.61
75428;BMP280;64008;55.612;37.698;2023-02-23T11:37:48;99725.03;;;20.73
75428;BMP280;64008;55.612;37.698;2023-02-23T11:42:50;99722.84;;;20.47
75428;BMP280;64008;55.612;37.698;2023-02-23T11:45:19;99740.31;;;20.31
75428;BMP280;64008;55.612;37.698;2023-02-23T11:47:47;99748.53;;;20.21
75428;BMP280;64008;55.612;37.698;2023-02-23T11:50:31;99734.84;;;20.22
75428;BMP280;64008;55.612;37.698;2023-02-23T11:55:30;99727.41;;;20.19
75428;BMP280;64008;55.612;37.698;2023-02-23T12:01:00;99730.41;;;20.45
75428;BMP280;64008;55.612;37.698;2023-02-23T12:03:31;99720.00;;;20.58
75428;BMP280;64008;55.612;37.698;2023-02-23T12:05:57;99716.50;;;20.57
75428;BMP280;64008;55.612;37.698;2023-02-23T12:11:13;99728.84;;;20.58
75428;BMP280;64008;55.612;37.698;2023-02-23T12:13:44;99714.03;;;20.61
75428;BMP280;64008;55.612;37.698;2023-02-23T12:16:25;99733.38;;;20.30
75428;BMP280;64008;55.612;37.698;2023-02-23T12:26:55;99727.19;;;19.45
75428;BMP280;64008;55.612;37.698;2023-02-23T12:29:28;99728.50;;;19.29
75428;BMP280;64008;55.612;37.698;2023-02-23T12:32:01;99729.88;;;19.45
75428;BMP280;64008;55.612;37.698;2023-02-23T12:34:53;99723.91;;;19.67
75428;BMP280;64008;55.612;37.698;2023-02-23T12:40:06;99717.13;;;20.07
75428;BMP280;64008;55.612;37.698;2023-02-23T12:42:51;99723.09;;;20.04
75428;BMP280;64008;55.612;37.698;2023-02-23T12:45:41;99713.56;;;19.79
75428;BMP280;64008;55.612;37.698;2023-02-23T12:51:05;99717.78;;;19.29
75428;BMP280;64008;55.612;37.698;2023-02-23T12:53:38;99716.72;;;19.06
75428;BMP280;64008;55.612;37.698;2023-02-23T13:01:40;99724.09;;;18.66
75428;BMP280;64008;55.612;37.698;2023-02-23T13:04:25;99729.38;;;18.47
75428;BMP280;64008;55.612;37.698;2023-02-23T13:19:54;99731.00;;;17.74
75428;BMP280;64008;55.612;37.698;2023-02-23T13:24:59;99726.81;;;17.63
75428;BMP280;64008;55.612;37.698;2023-02-23T13:29:55;99721.22;;;17.54
75428;BMP280;64008;55.612;37.698;2023-02-23T13:32:26;99726.59;;;17.49
75428;BMP280;64008;55.612;37.698;2023-02-23T13:34:57;99731.94;;;17.49
75428;BMP280;64008;55.612;37.698;2023-02-23T13:43:08;99735.47;;;17.39
75428;BMP280;64008;55.612;37.698;2023-02-23T13:48:29;99731.28;;;17.23
75428;BMP280;64008;55.612;37.698;2023-02-23T13:51:19;99738.50;;;17.17
75428;BMP280;64008;55.612;37.698;2023-02-23T13:56:24;99729.44;;;17.08
75428;BMP280;64008;55.612;37.698;2023-02-23T13:58:57;99724.38;;;17.06
75428;BMP280;64008;55.612;37.698;2023-02-23T14:01:31;99722.81;;;17.05
75428;BMP280;64008;55.612;37.698;2023-02-23T14:03:59;99727.06;;;17.01
75428;BMP280;64008;55.612;37.698;2023-02-23T14:06:28;99722.00;;;16.95
75428;BMP280;64008;55.612;37.698;2023-02-23T14:09:20;99730.00;;;17.00
75428;BMP280;64008;55.612;37.698;2023-02-23T14:11:50;99715.84;;;17.04
75428;BMP280;64008;55.612;37.698;2023-02-23T14:25:46;99721.72;;;17.01
75428;BMP280;64008;55.612;37.698;2023-02-23T14:33:48;99720.41;;;16.94
75428;BMP280;64008;55.612;37.698;2023-02-23T14:38:46;99709.25;;;16.86
75428;BMP280;64008;55.612;37.698;2023-02-23T14:41:30;99709.25;;;16.86
75428;BMP280;64008;55.612;37.698;2023-02-23T14:44:04;99716.97;;;16.83
75428;BMP280;64008;55.612;37.698;2023-02-23T14:46:31;99713.28;;;16.69
75428;BMP280;64008;55.612;37.698;2023-02-23T14:49:09;99716.97;;;16.73
75428;BMP280;64008;55.612;37.698;2023-02-23T14:51:43;99711.91;;;16.71
75428;BMP280;64008;55.612;37.698;2023-02-23T14:54:22;99705.25;;;16.74
75428;BMP280;64008;55.612;37.698;2023-02-23T14:56:51;99706.56;;;16.71
75428;BMP280;64008;55.612;37.698;2023-02-23T14:59:20;99698.31;;;16.67
75428;BMP280;64008;55.612;37.698;2023-02-23T15:01:46;99699.41;;;16.61
75428;BMP280;64008;55.612;37.698;2023-02-23T15:04:16;99704.75;;;16.56
75428;BMP280;64008;55.612;37.698;2023-02-23T15:06:43;99702.63;;;16.53
75428;BMP280;64008;55.612;37.698;2023-02-23T15:09:32;99697.03;;;16.55
75428;BMP280;64008;55.612;37.698;2023-02-23T15:12:05;99695.44;;;16.49
75428;BMP280;64008;55.612;37.698;2023-02-23T15:14:36;99706.13;;;16.38
75428;BMP280;64008;55.612;37.698;2023-02-23T15:17:03;99706.88;;;16.34
75428;BMP280;64008;55.612;37.698;2023-02-23T15:19:33;99706.63;;;16.15
75428;BMP280;64008;55.612;37.698;2023-02-23T15:22:02;99708.25;;;16.16
75428;BMP280;64008;55.612;37.698;2023-02-23T15:24:47;99714.09;;;16.08
75428;BMP280;64008;55.612;37.698;2023-02-23T15:27:20;99703.16;;;16.14
75428;BMP280;64008;55.612;37.698;2023-02-23T15:29:46;99700.75;;;16.18
75428;BMP280;64008;55.612;37.698;2023-02-23T15:32:21;99704.22;;;16.13
75428;BMP280;64008;55.612;37.698;2023-02-23T15:34:47;99703.41;;;16.13
75428;BMP280;64008;55.612;37.698;2023-02-23T15:39:55;99708.47;;;15.94
75428;BMP280;64008;55.612;37.698;2023-02-23T15:42:46;99695.19;;;16.04
75428;BMP280;64008;55.612;37.698;2023-02-23T15:47:51;99706.88;;;16.03
75428;BMP280;64008;55.612;37.698;2023-02-23T15:50:21;99709.03;;;16.11
75428;BMP280;64008;55.612;37.698;2023-02-23T15:52:52;99727.16;;;15.99
75428;BMP280;64008;55.612;37.698;2023-02-23T15:55:41;99712.75;;;15.95
75428;BMP280;64008;55.612;37.698;2023-02-23T15:58:16;99708.50;;;15.99
75428;BMP280;64008;55.612;37.698;2023-02-23T16:00:49;99715.66;;;15.93
75428;BMP280;64008;55.612;37.698;2023-02-23T16:03:24;99710.88;;;15.95
75428;BMP280;64008;55.612;37.698;2023-02-23T16:06:04;99700.75;;;15.97
75428;BMP280;64008;55.612;37.698;2023-02-23T16:08:31;99700.22;;;15.95
75428;BMP280;64008;55.612;37.698;2023-02-23T16:13:33;99693.78;;;15.81
75428;BMP280;64008;55.612;37.698;2023-02-23T16:15:58;99695.97;;;15.94
75428;BMP280;64008;55.612;37.698;2023-02-23T16:18:37;99687.19;;;15.99
75428;BMP280;64008;55.612;37.698;2023-02-23T16:21:04;99680.25;;;15.93
75428;BMP280;64008;55.612;37.698;2023-02-23T16:23:39;99684.53;;;15.99
75428;BMP280;64008;55.612;37.698;2023-02-23T16:26:08;99682.38;;;16.01
75428;BMP280;64008;55.612;37.698;2023-02-23T16:28:36;99673.59;;;16.06
75428;BMP280;64008;55.612;37.698;2023-02-23T16:31:07;99667.97;;;15.97
75428;BMP280;64008;55.612;37.698;2023-02-23T16:33:44;99668.78;;;15.97
75428;BMP280;64008;55.612;37.698;2023-02-23T16:36:21;99666.91;;;16.03
75428;BMP280;64008;55.612;37.698;2023-02-23T16:39:13;99658.91;;;16.08
75428;BMP280;64008;55.612;37.698;2023-02-23T16:41:41;99659.47;;;16.00
75428;BMP280;64008;55.612;37.698;2023-02-23T16:44:15;99662.38;;;15.98
75428;BMP280;64008;55.612;37.698;2023-02-23T16:49:26;99651.47;;;16.00
75428;BMP280;64008;55.612;37.698;2023-02-23T16:51:55;99657.63;;;16.06